Airfield :
LOGIN :

Register | Disclaimer

   EN    FR    IT 

 










Legend :    VFR   Marginal VFR   IFR   Intensive IFR   Very Intensive IFR
Visi :
Ceiling :
>= 8 km
>= 3000ft
5 to 8 km
1000 to 3000 ft
1500m to 5 km
500 to 1000 ft
800 to 1500m
200 to 500 ft
< 800m
< 200 ft
Symbols :   Thunderstorms  Fog  Heavy snow  Heavy precipitations  Wind > 20 kt
SIGMETs :     Misc.  Thunderstorms  Icing  Turbulence  Mountain Waves  Volcanic Ashes







- Airport Elevation : 410 ft
- IATA code : AVB


LIPA - Aviano AB Pordenone

CURRENT METAR :
  • 111655Z 03006KT CAVOK 02/M03 Q1017 RMK SKC VIS MIN 9999 WIND THR05 03004KT WIND THR23 02006KT A3006 BLU

EXPIRED METARs :
  • 111555Z 11002KT CAVOK 06/M02 Q1017 RMK SKC VIS MIN 9999 WIND THR05 00000KT WIND THR23 01003KT A3005 BLU
  • 111455Z 11003KT CAVOK 09/M01 Q1017 RMK SKC VIS MIN 9999 WIND THR05 07003KT WIND THR23 07003KT A3004 BLU

TAF TAF LIPA
Valid from the 11 at 18:00 until the 12 at 03:00 UTC


111700Z 1118/1203 35005KT CAVOK
No reported NOTAMs for that airfield.
1 SIGMET reported for the Milano FIR (LIMM) :
 
Severe turbulence
LIMM SIGMET 4 VALID 111440/111800 LIIP
LIMM MILANO FIR SEV TURB FCST W OF LINE N4708 E01115 - N4324 E01342 ABV FL220 MOV E NC=



MET'MAP, your aeronautical weather chart ! - Copyright ORBIFLY December 2007 - Disclaimer

ORBIFLY MET'MAP TEAM :

Programming & Development : Alexandra Zaïnal
Concept & Development : Baudouin d'Aumeries
Co-Development & Prog : Marc-Olivier Méhu
Technical & hardware support : Manuel Goepfert

Contact : metmap@orbifly.com




SOURCES & CREDITS :

   NOAA